Time;durP1;ratioP1;P1;durP2;ratioP2;P2;SDS_P1;SDS_P2;PMS_P1;PMS_P2;Temp;Humidity;BMP_temperature;BMP_pressure;BME280_temperature;BME280_humidity;BME280_pressure;Samples;Min_cycle;Max_cycle;Signal;HPM_P1;HPM_P2
2021/07/16 00:00:40;;;;;;;16.73;7.53;;;;;;;;;;5073348;28;21025;-82
2021/07/16 00:03:07;;;;;;;14.03;7.27;;;;;;;;;;5073877;28;20536;-80
2021/07/16 00:05:34;;;;;;;13.33;8.30;;;;;;;;;;5073811;28;20485;-80
2021/07/16 00:08:03;;;;;;;11.30;6.90;;;;;;;;;;5073510;28;20561;-78
2021/07/16 00:10:30;;;;;;;11.77;6.33;;;;;;;;;;5073501;28;20446;-79
2021/07/16 00:12:57;;;;;;;15.57;7.73;;;;;;;;;;5073761;28;20438;-79
2021/07/16 00:15:25;;;;;;;11.57;7.07;;;;;;;;;;5073220;28;20437;-79
2021/07/16 00:17:52;;;;;;;13.67;8.00;;;;;;;;;;5073309;28;20520;-79
2021/07/16 00:20:20;;;;;;;21.97;7.90;;;;;;;;;;5073177;28;20524;-79
2021/07/16 00:22:47;;;;;;;16.93;7.47;;;;;;;;;;5073493;28;20795;-80
2021/07/16 00:25:16;;;;;;;15.20;7.17;;;;;;;;;;5073194;28;20451;-80
2021/07/16 00:27:43;;;;;;;14.17;6.73;;;;;;;;;;5073279;28;20473;-80
2021/07/16 00:30:11;;;;;;;23.20;8.77;;;;;;;;;;5073097;28;20456;-80
2021/07/16 00:32:38;;;;;;;19.10;8.10;;;;;;;;;;5073588;28;20450;-80
2021/07/16 00:35:06;;;;;;;18.97;7.43;;;;;;;;;;5073096;28;20446;-80
2021/07/16 00:37:34;;;;;;;12.27;7.23;;;;;;;;;;5073389;28;20434;-80
2021/07/16 00:40:01;;;;;;;13.63;7.30;;;;;;;;;;5073337;28;20524;-80
2021/07/16 00:42:29;;;;;;;16.20;7.50;;;;;;;;;;5073426;28;20444;-79
2021/07/16 00:44:57;;;;;;;21.40;8.20;;;;;;;;;;5073320;28;20441;-82
2021/07/16 00:47:24;;;;;;;16.10;8.10;;;;;;;;;;5073187;28;20536;-80
2021/07/16 00:49:51;;;;;;;14.30;7.50;;;;;;;;;;5073359;28;20529;-78
2021/07/16 00:52:18;;;;;;;14.73;7.30;;;;;;;;;;5073445;28;20441;-78
2021/07/16 00:54:45;;;;;;;13.13;8.53;;;;;;;;;;5073418;28;20468;-77
2021/07/16 00:57:13;;;;;;;18.03;7.30;;;;;;;;;;5073578;28;20438;-76
2021/07/16 00:59:41;;;;;;;23.13;9.43;;;;;;;;;;5073349;28;20460;-81
2021/07/16 01:02:09;;;;;;;10.10;7.60;;;;;;;;;;5073009;28;20443;-79
2021/07/16 01:04:36;;;;;;;15.67;7.40;;;;;;;;;;5072692;28;20445;-77
2021/07/16 01:07:04;;;;;;;15.97;8.07;;;;;;;;;;5073057;28;20451;-78
2021/07/16 01:09:31;;;;;;;14.03;9.23;;;;;;;;;;5073989;28;20480;-78
2021/07/16 01:11:59;;;;;;;12.60;7.60;;;;;;;;;;5076521;28;20451;-76
2021/07/16 01:14:26;;;;;;;11.20;7.03;;;;;;;;;;5076774;28;20446;-75
2021/07/16 01:16:54;;;;;;;10.03;7.40;;;;;;;;;;5076458;28;20445;-75
2021/07/16 01:19:27;;;;;;;14.83;8.87;;;;;;;;;;5076372;28;20452;-77
2021/07/16 01:21:56;;;;;;;15.67;7.30;;;;;;;;;;5076452;28;20520;-76
2021/07/16 01:24:25;;;;;;;18.30;8.30;;;;;;;;;;5076664;28;20871;-76
2021/07/16 01:26:52;;;;;;;20.10;7.93;;;;;;;;;;5076568;28;20438;-80
2021/07/16 01:29:21;;;;;;;15.67;9.30;;;;;;;;;;5076548;28;20502;-78
2021/07/16 01:31:48;;;;;;;8.90;6.57;;;;;;;;;;5077027;28;20849;-77
2021/07/16 01:34:16;;;;;;;14.37;7.40;;;;;;;;;;5076612;28;20454;-79
2021/07/16 01:36:43;;;;;;;17.87;7.30;;;;;;;;;;5076616;28;20447;-75
2021/07/16 01:39:10;;;;;;;16.17;8.17;;;;;;;;;;5076370;28;20441;-77
2021/07/16 01:41:39;;;;;;;12.53;7.93;;;;;;;;;;5076358;28;20458;-76
2021/07/16 01:44:06;;;;;;;10.80;7.10;;;;;;;;;;5076549;28;20440;-76
2021/07/16 01:46:33;;;;;;;9.10;7.57;;;;;;;;;;5075839;28;20444;-77
2021/07/16 01:49:00;;;;;;;15.07;7.17;;;;;;;;;;5075718;28;20475;-76
2021/07/16 01:51:28;;;;;;;13.00;7.50;;;;;;;;;;5076642;28;20434;-76
2021/07/16 01:53:55;;;;;;;9.40;7.43;;;;;;;;;;5076061;28;21007;-75
2021/07/16 01:56:24;;;;;;;17.40;7.20;;;;;;;;;;5075705;28;20535;-75
2021/07/16 01:58:53;;;;;;;9.27;6.90;;;;;;;;;;5075661;28;20492;-75
2021/07/16 02:01:24;;;;;;;12.77;7.10;;;;;;;;;;5075947;28;20498;-75
2021/07/16 02:03:51;;;;;;;10.43;6.67;;;;;;;;;;5075760;28;20939;-75
2021/07/16 02:06:18;;;;;;;10.23;6.97;;;;;;;;;;5075684;28;20446;-75
2021/07/16 02:08:45;;;;;;;9.67;7.60;;;;;;;;;;5075584;28;20483;-76
2021/07/16 02:11:13;;;;;;;11.10;7.67;;;;;;;;;;5075467;28;20451;-76
2021/07/16 02:13:40;;;;;;;11.00;7.97;;;;;;;;;;5075579;28;20483;-78
2021/07/16 02:16:09;;;;;;;15.83;7.87;;;;;;;;;;5075275;28;20957;-79
2021/07/16 02:18:36;;;;;;;12.80;7.90;;;;;;;;;;5075572;28;20448;-78
2021/07/16 02:21:03;;;;;;;16.37;8.90;;;;;;;;;;5074551;28;20443;-79
2021/07/16 02:23:31;;;;;;;12.93;8.13;;;;;;;;;;5076107;28;20502;-79
2021/07/16 02:25:58;;;;;;;13.00;8.60;;;;;;;;;;5075430;28;20935;-77
2021/07/16 02:28:27;;;;;;;11.20;7.63;;;;;;;;;;5075395;28;20473;-76
2021/07/16 02:30:54;;;;;;;13.90;8.73;;;;;;;;;;5075369;28;20487;-77
2021/07/16 02:33:23;;;;;;;12.93;8.67;;;;;;;;;;5076113;28;20450;-80
2021/07/16 02:35:51;;;;;;;15.67;9.33;;;;;;;;;;5075040;28;20462;-78
2021/07/16 02:38:19;;;;;;;17.27;9.83;;;;;;;;;;5075268;28;20532;-78
2021/07/16 02:40:47;;;;;;;18.60;8.80;;;;;;;;;;5074923;28;20540;-78
2021/07/16 02:43:14;;;;;;;17.70;10.20;;;;;;;;;;5075337;28;20439;-78
2021/07/16 02:45:42;;;;;;;13.80;9.03;;;;;;;;;;5075545;28;20445;-78
2021/07/16 02:48:09;;;;;;;12.77;8.40;;;;;;;;;;5075098;28;20447;-80
2021/07/16 02:50:39;;;;;;;14.33;9.10;;;;;;;;;;5075085;28;20451;-78
2021/07/16 02:53:06;;;;;;;17.70;9.40;;;;;;;;;;5074917;28;20442;-79
2021/07/16 02:55:34;;;;;;;13.93;9.00;;;;;;;;;;5075063;28;20959;-77
2021/07/16 02:58:01;;;;;;;14.57;9.10;;;;;;;;;;5075211;28;20461;-78
2021/07/16 03:00:30;;;;;;;16.33;8.53;;;;;;;;;;5075273;28;20451;-78
2021/07/16 03:02:57;;;;;;;15.77;8.30;;;;;;;;;;5074771;28;20434;-77
2021/07/16 03:05:27;;;;;;;14.10;8.13;;;;;;;;;;5075414;28;20433;-78
2021/07/16 03:07:56;;;;;;;18.30;8.93;;;;;;;;;;5074828;28;20808;-78
2021/07/16 03:10:25;;;;;;;10.90;8.67;;;;;;;;;;5074258;28;20480;-77
2021/07/16 03:12:53;;;;;;;14.30;8.60;;;;;;;;;;5074808;28;20523;-77
2021/07/16 03:15:21;;;;;;;11.77;8.63;;;;;;;;;;5074191;28;20449;-78
2021/07/16 03:17:48;;;;;;;15.73;9.07;;;;;;;;;;5074144;28;20507;-76
2021/07/16 03:20:17;;;;;;;20.40;8.40;;;;;;;;;;5074528;28;20441;-77
2021/07/16 03:22:44;;;;;;;11.17;7.97;;;;;;;;;;5074442;28;20474;-79
2021/07/16 03:25:15;;;;;;;15.70;8.23;;;;;;;;;;5074353;28;20852;-76
2021/07/16 03:27:42;;;;;;;13.60;8.40;;;;;;;;;;5074396;28;20433;-76
2021/07/16 03:30:10;;;;;;;14.90;9.10;;;;;;;;;;5073911;28;20477;-76
2021/07/16 03:32:38;;;;;;;11.03;7.60;;;;;;;;;;5074132;28;20439;-77
2021/07/16 03:35:05;;;;;;;13.30;9.00;;;;;;;;;;5074489;28;20451;-77
2021/07/16 03:37:32;;;;;;;17.40;7.53;;;;;;;;;;5073784;28;20434;-78
2021/07/16 03:40:00;;;;;;;23.30;7.77;;;;;;;;;;5073721;28;20545;-75
2021/07/16 03:42:28;;;;;;;15.33;8.30;;;;;;;;;;5074088;28;20891;-76
2021/07/16 03:44:56;;;;;;;17.57;7.80;;;;;;;;;;5074194;28;20433;-75
2021/07/16 03:47:23;;;;;;;18.00;9.47;;;;;;;;;;5074124;28;20448;-77
2021/07/16 03:49:50;;;;;;;24.47;8.10;;;;;;;;;;5073452;28;20483;-75
2021/07/16 03:52:17;;;;;;;16.47;8.13;;;;;;;;;;5073776;28;20444;-75
2021/07/16 03:54:44;;;;;;;14.50;7.20;;;;;;;;;;5074031;28;20482;-75
2021/07/16 03:57:12;;;;;;;12.80;8.10;;;;;;;;;;5073668;28;21008;-75
2021/07/16 03:59:40;;;;;;;28.63;9.17;;;;;;;;;;5073636;28;20449;-75
2021/07/16 04:02:07;;;;;;;20.40;8.93;;;;;;;;;;5073777;28;20545;-75
2021/07/16 04:04:35;;;;;;;18.00;8.83;;;;;;;;;;5073670;28;20471;-75
2021/07/16 04:07:05;;;;;;;27.00;8.20;;;;;;;;;;5073937;28;20440;-75
2021/07/16 04:09:32;;;;;;;18.73;7.70;;;;;;;;;;5073588;28;20828;-75
2021/07/16 04:12:07;;;;;;;17.80;8.87;;;;;;;;;;5073605;28;20452;-76
2021/07/16 04:14:34;;;;;;;14.33;9.13;;;;;;;;;;5073450;28;20943;-77
2021/07/16 04:17:03;;;;;;;21.20;8.33;;;;;;;;;;5073230;28;20981;-75
2021/07/16 04:19:30;;;;;;;23.10;9.47;;;;;;;;;;5073321;28;20527;-76
2021/07/16 04:21:58;;;;;;;22.03;8.60;;;;;;;;;;5073757;28;20520;-77
2021/07/16 04:24:26;;;;;;;13.73;7.43;;;;;;;;;;5073865;28;20536;-77
2021/07/16 04:26:53;;;;;;;15.20;8.00;;;;;;;;;;5078369;28;20524;-78
2021/07/16 04:29:20;;;;;;;17.17;8.30;;;;;;;;;;5084676;28;20479;-75
2021/07/16 04:31:47;;;;;;;14.07;8.33;;;;;;;;;;5093797;28;20468;-76
2021/07/16 04:34:16;;;;;;;15.20;7.90;;;;;;;;;;5093058;28;20450;-75
2021/07/16 04:36:45;;;;;;;17.23;8.50;;;;;;;;;;5093453;28;20438;-75
2021/07/16 04:39:12;;;;;;;20.50;8.13;;;;;;;;;;5093438;28;20482;-74
2021/07/16 04:41:39;;;;;;;27.77;9.27;;;;;;;;;;5093688;28;20781;-75
2021/07/16 04:44:07;;;;;;;18.30;8.80;;;;;;;;;;5094092;28;20445;-75
2021/07/16 04:46:34;;;;;;;22.47;10.40;;;;;;;;;;5097828;28;20541;-66
2021/07/16 04:49:01;;;;;;;17.33;8.93;;;;;;;;;;5097605;28;20446;-76
2021/07/16 04:51:30;;;;;;;16.97;8.67;;;;;;;;;;5097197;28;20451;-76
2021/07/16 04:53:58;;;;;;;18.73;10.13;;;;;;;;;;5097416;28;20483;-76
2021/07/16 04:56:25;;;;;;;23.67;9.10;;;;;;;;;;5092338;28;20441;-76
2021/07/16 04:58:53;;;;;;;25.47;9.53;;;;;;;;;;5076784;28;20953;-79
2021/07/16 05:01:21;;;;;;;20.30;10.43;;;;;;;;;;5076869;28;20484;-78
2021/07/16 05:03:49;;;;;;;17.33;11.10;;;;;;;;;;5076636;28;20447;-76
2021/07/16 05:06:16;;;;;;;22.33;11.13;;;;;;;;;;5076815;28;20453;-76
2021/07/16 05:08:45;;;;;;;32.00;11.27;;;;;;;;;;5076226;28;20445;-74
2021/07/16 05:11:12;;;;;;;18.83;11.60;;;;;;;;;;5076356;28;21011;-74
2021/07/16 05:13:41;;;;;;;18.93;10.80;;;;;;;;;;5076942;28;20554;-76
2021/07/16 05:16:09;;;;;;;16.70;9.93;;;;;;;;;;5076646;28;20449;-75
2021/07/16 05:18:36;;;;;;;26.87;10.57;;;;;;;;;;5076456;28;20448;-75
2021/07/16 05:21:04;;;;;;;21.50;10.50;;;;;;;;;;5076426;28;20969;-76
2021/07/16 05:23:31;;;;;;;19.50;9.60;;;;;;;;;;5076307;28;20448;-75
2021/07/16 05:26:00;;;;;;;17.43;9.90;;;;;;;;;;5075406;28;20441;-75
2021/07/16 05:28:28;;;;;;;25.80;10.10;;;;;;;;;;5076163;28;20445;-80
2021/07/16 05:30:55;;;;;;;26.50;10.47;;;;;;;;;;5075766;28;20567;-76
2021/07/16 05:33:23;;;;;;;24.23;11.17;;;;;;;;;;5075445;28;20436;-77
2021/07/16 05:35:50;;;;;;;22.10;10.20;;;;;;;;;;5075944;28;20536;-67
2021/07/16 05:38:18;;;;;;;15.30;9.63;;;;;;;;;;5076948;28;20437;-81
2021/07/16 05:40:45;;;;;;;26.60;9.50;;;;;;;;;;5075953;28;20445;-73
2021/07/16 05:43:14;;;;;;;16.03;8.53;;;;;;;;;;5076044;28;20451;-73
2021/07/16 05:45:43;;;;;;;16.60;10.97;;;;;;;;;;5076189;28;20796;-76
2021/07/16 05:48:11;;;;;;;25.13;10.13;;;;;;;;;;5076177;28;20432;-76
2021/07/16 05:50:38;;;;;;;22.33;9.23;;;;;;;;;;5075948;28;20476;-76
2021/07/16 05:53:06;;;;;;;20.90;10.77;;;;;;;;;;5076130;28;20773;-75
2021/07/16 05:55:33;;;;;;;15.70;9.60;;;;;;;;;;5075512;28;20469;-76
2021/07/16 05:58:00;;;;;;;21.23;9.20;;;;;;;;;;5075539;28;20456;-78
2021/07/16 06:00:29;;;;;;;15.73;9.30;;;;;;;;;;5075990;28;20537;-78
2021/07/16 06:02:56;;;;;;;19.33;9.20;;;;;;;;;;5075514;28;20437;-81
2021/07/16 06:05:24;;;;;;;19.33;10.03;;;;;;;;;;5076073;28;20448;-78
2021/07/16 06:07:51;;;;;;;20.10;8.67;;;;;;;;;;5075944;28;20447;-76
2021/07/16 06:10:18;;;;;;;17.87;9.23;;;;;;;;;;5075623;28;20487;-75
2021/07/16 06:12:46;;;;;;;17.10;8.23;;;;;;;;;;5075275;28;20444;-74
2021/07/16 06:15:13;;;;;;;17.50;9.00;;;;;;;;;;5075545;28;20447;-77
2021/07/16 06:17:42;;;;;;;18.90;8.80;;;;;;;;;;5075632;28;20451;-76
2021/07/16 06:20:10;;;;;;;20.67;8.07;;;;;;;;;;5075605;28;20442;-74
2021/07/16 06:22:37;;;;;;;15.60;9.40;;;;;;;;;;5075580;28;20859;-74
2021/07/16 06:25:05;;;;;;;15.97;8.60;;;;;;;;;;5075455;28;20449;-75
2021/07/16 06:27:32;;;;;;;20.43;8.83;;;;;;;;;;5075632;28;20531;-75
2021/07/16 06:30:00;;;;;;;28.00;9.43;;;;;;;;;;5075612;28;20485;-75
2021/07/16 06:32:27;;;;;;;19.87;9.83;;;;;;;;;;5075471;28;20440;-76
2021/07/16 06:34:55;;;;;;;20.00;9.10;;;;;;;;;;5075005;28;20452;-79
2021/07/16 06:37:22;;;;;;;18.97;8.47;;;;;;;;;;5075227;28;20532;-75
2021/07/16 06:39:50;;;;;;;28.43;8.80;;;;;;;;;;5075054;28;20908;-75
2021/07/16 06:42:18;;;;;;;31.47;9.07;;;;;;;;;;5074746;28;20451;-77
2021/07/16 06:44:45;;;;;;;20.93;9.23;;;;;;;;;;5075437;28;20872;-75
2021/07/16 06:47:12;;;;;;;17.63;8.13;;;;;;;;;;5075012;28;20439;-80
2021/07/16 06:49:39;;;;;;;30.57;10.20;;;;;;;;;;5075504;28;20994;-77
2021/07/16 06:52:09;;;;;;;34.67;9.50;;;;;;;;;;5075120;28;20521;-78
2021/07/16 06:54:38;;;;;;;36.13;9.83;;;;;;;;;;5074884;28;20469;-76
2021/07/16 06:57:05;;;;;;;27.67;9.20;;;;;;;;;;5074810;28;20524;-81
2021/07/16 06:59:34;;;;;;;29.63;9.60;;;;;;;;;;5074443;28;20441;-76
2021/07/16 07:02:01;;;;;;;22.73;10.07;;;;;;;;;;5074916;28;20519;-79
2021/07/16 07:04:29;;;;;;;28.57;10.27;;;;;;;;;;5074679;28;20477;-76
2021/07/16 07:06:56;;;;;;;21.00;9.30;;;;;;;;;;5073666;28;20456;-76
2021/07/16 07:09:25;;;;;;;21.70;9.40;;;;;;;;;;5074497;28;20795;-76
2021/07/16 07:11:52;;;;;;;24.40;9.23;;;;;;;;;;5074171;28;20477;-76
2021/07/16 07:14:19;;;;;;;28.77;10.20;;;;;;;;;;5074148;28;20444;-76
2021/07/16 07:16:46;;;;;;;22.70;8.70;;;;;;;;;;5074444;28;20487;-75
2021/07/16 07:19:13;;;;;;;27.47;9.27;;;;;;;;;;5074410;28;20449;-76
2021/07/16 07:21:41;;;;;;;20.07;8.50;;;;;;;;;;5074356;28;20452;-76
2021/07/16 07:24:08;;;;;;;26.53;8.70;;;;;;;;;;5074058;28;20457;-76
2021/07/16 07:26:36;;;;;;;15.73;7.87;;;;;;;;;;5074613;28;20469;-74
2021/07/16 07:29:04;;;;;;;25.57;9.03;;;;;;;;;;5073842;28;20455;-74
2021/07/16 07:31:31;;;;;;;32.90;8.90;;;;;;;;;;5073805;28;20476;-75
2021/07/16 07:33:58;;;;;;;23.70;9.40;;;;;;;;;;5073841;28;20453;-75
2021/07/16 07:36:26;;;;;;;23.13;7.53;;;;;;;;;;5074043;28;20449;-76
2021/07/16 07:38:53;;;;;;;23.53;8.33;;;;;;;;;;5073773;28;20442;-75
2021/07/16 07:41:20;;;;;;;19.57;8.17;;;;;;;;;;5073968;28;20476;-76
2021/07/16 07:43:49;;;;;;;26.40;8.07;;;;;;;;;;5074015;28;20447;-75
2021/07/16 07:46:18;;;;;;;24.60;8.17;;;;;;;;;;5073915;28;20439;-75
2021/07/16 07:48:46;;;;;;;24.47;7.90;;;;;;;;;;5073577;28;20451;-74
2021/07/16 07:51:13;;;;;;;24.17;8.80;;;;;;;;;;5074216;28;20478;-74
2021/07/16 07:53:40;;;;;;;18.37;8.13;;;;;;;;;;5073253;28;20565;-74
2021/07/16 07:56:07;;;;;;;19.63;7.37;;;;;;;;;;5074373;28;20580;-77
2021/07/16 07:58:34;;;;;;;23.10;8.07;;;;;;;;;;5074008;28;20540;-76
2021/07/16 08:01:03;;;;;;;19.97;7.73;;;;;;;;;;5073626;28;20458;-76
2021/07/16 08:03:30;;;;;;;19.23;7.00;;;;;;;;;;5073591;28;20438;-75
2021/07/16 08:05:57;;;;;;;23.13;7.50;;;;;;;;;;5073218;28;20804;-75
2021/07/16 08:08:24;;;;;;;17.40;7.53;;;;;;;;;;5073568;28;20448;-75
2021/07/16 08:10:52;;;;;;;23.60;6.83;;;;;;;;;;5073583;28;20477;-74
2021/07/16 08:13:19;;;;;;;25.80;7.70;;;;;;;;;;5073980;28;20442;-74
2021/07/16 08:15:46;;;;;;;21.90;9.17;;;;;;;;;;5073127;28;20444;-74
2021/07/16 08:18:15;;;;;;;21.20;8.10;;;;;;;;;;5073166;28;20488;-74
2021/07/16 08:20:42;;;;;;;17.23;7.60;;;;;;;;;;5073646;28;20548;-74
2021/07/16 08:23:09;;;;;;;23.87;8.20;;;;;;;;;;5073352;28;20528;-75
2021/07/16 08:25:36;;;;;;;15.10;7.33;;;;;;;;;;5073496;28;20442;-74
2021/07/16 08:28:04;;;;;;;16.37;7.70;;;;;;;;;;5073026;28;20525;-74
2021/07/16 08:30:31;;;;;;;19.50;7.03;;;;;;;;;;5072922;28;21069;-75
2021/07/16 08:32:58;;;;;;;21.97;7.87;;;;;;;;;;5073392;28;20522;-75
2021/07/16 08:35:27;;;;;;;23.80;8.33;;;;;;;;;;5073129;28;20525;-74
2021/07/16 08:37:54;;;;;;;24.07;8.23;;;;;;;;;;5073326;28;20908;-75
2021/07/16 08:40:21;;;;;;;18.17;7.30;;;;;;;;;;5073162;28;20449;-74
2021/07/16 08:42:49;;;;;;;21.40;6.90;;;;;;;;;;5072646;28;20453;-75
2021/07/16 08:45:16;;;;;;;13.97;7.73;;;;;;;;;;5073060;28;20522;-75
2021/07/16 08:47:44;;;;;;;21.73;7.00;;;;;;;;;;5072735;28;20439;-74
2021/07/16 08:50:12;;;;;;;13.43;7.00;;;;;;;;;;5072684;28;20508;-76
2021/07/16 08:52:44;;;;;;;16.50;7.47;;;;;;;;;;5073626;28;20521;-73
2021/07/16 08:55:11;;;;;;;17.83;6.80;;;;;;;;;;5072929;28;20482;-74
2021/07/16 08:57:39;;;;;;;14.40;7.13;;;;;;;;;;5073015;28;20522;-75
2021/07/16 09:00:07;;;;;;;18.00;7.73;;;;;;;;;;5073246;28;20474;-74
2021/07/16 09:02:35;;;;;;;22.60;8.53;;;;;;;;;;5072946;28;20448;-75
2021/07/16 09:05:07;;;;;;;24.50;7.27;;;;;;;;;;5073159;28;20485;-74
2021/07/16 09:07:41;;;;;;;20.83;8.23;;;;;;;;;;5073077;28;20438;-74
2021/07/16 09:10:11;;;;;;;15.37;7.10;;;;;;;;;;5073756;28;20454;-74
2021/07/16 09:12:39;;;;;;;18.83;8.17;;;;;;;;;;5072835;28;20442;-74
2021/07/16 09:15:10;;;;;;;26.50;9.23;;;;;;;;;;5072552;28;20949;-74
2021/07/16 09:17:42;;;;;;;21.13;8.43;;;;;;;;;;5072842;28;20446;-74
2021/07/16 09:20:10;;;;;;;26.27;9.90;;;;;;;;;;5072910;28;20545;-74
2021/07/16 09:22:37;;;;;;;27.53;7.77;;;;;;;;;;5072422;28;20449;-74
2021/07/16 09:25:05;;;;;;;15.20;7.10;;;;;;;;;;5073086;28;20520;-73
2021/07/16 09:27:35;;;;;;;15.73;7.10;;;;;;;;;;5072458;28;20430;-74
2021/07/16 09:30:16;;;;;;;18.70;6.70;;;;;;;;;;5073312;28;20455;-74
2021/07/16 09:32:44;;;;;;;15.53;7.93;;;;;;;;;;5076729;28;20517;-73
2021/07/16 09:35:17;;;;;;;11.77;5.80;;;;;;;;;;5076438;28;20448;-74
2021/07/16 09:37:49;;;;;;;16.37;7.93;;;;;;;;;;5076124;28;20426;-74
2021/07/16 09:40:20;;;;;;;23.37;7.10;;;;;;;;;;5076012;28;20460;-74
2021/07/16 09:42:49;;;;;;;16.77;7.67;;;;;;;;;;5075880;28;20433;-74
2021/07/16 09:45:16;;;;;;;18.10;6.83;;;;;;;;;;5076255;28;20445;-73
2021/07/16 09:47:43;;;;;;;11.60;7.23;;;;;;;;;;5075908;28;20437;-75
2021/07/16 09:50:12;;;;;;;23.43;8.10;;;;;;;;;;5076135;28;20522;-75
2021/07/16 09:52:39;;;;;;;18.00;6.70;;;;;;;;;;5075741;28;20470;-75
2021/07/16 09:55:08;;;;;;;19.27;7.13;;;;;;;;;;5076473;28;20498;-74
2021/07/16 09:57:39;;;;;;;16.33;7.10;;;;;;;;;;5076006;28;20470;-74
2021/07/16 10:00:18;;;;;;;19.17;9.07;;;;;;;;;;5075587;28;20522;-74
2021/07/16 10:02:46;;;;;;;17.60;7.67;;;;;;;;;;5076120;28;20436;-74
2021/07/16 10:05:13;;;;;;;14.17;6.83;;;;;;;;;;5075461;28;20454;-74
2021/07/16 10:07:42;;;;;;;15.23;7.00;;;;;;;;;;5075836;28;20882;-75
2021/07/16 10:10:11;;;;;;;24.27;7.20;;;;;;;;;;5075528;28;20932;-74
2021/07/16 10:12:39;;;;;;;17.10;6.60;;;;;;;;;;5075640;28;20891;-75
2021/07/16 10:15:07;;;;;;;22.83;7.20;;;;;;;;;;5075406;28;20522;-74
2021/07/16 10:17:35;;;;;;;16.97;7.40;;;;;;;;;;5075638;28;20471;-74
2021/07/16 10:20:03;;;;;;;12.60;6.10;;;;;;;;;;5075277;28;20440;-74
2021/07/16 10:22:30;;;;;;;20.17;7.30;;;;;;;;;;5075554;28;20529;-75
2021/07/16 10:24:57;;;;;;;16.53;6.40;;;;;;;;;;5075849;28;20441;-74
2021/07/16 10:27:25;;;;;;;14.90;6.90;;;;;;;;;;5075504;28;20442;-74
2021/07/16 10:30:05;;;;;;;22.07;7.10;;;;;;;;;;5075689;28;20442;-75
2021/07/16 10:32:43;;;;;;;18.93;8.60;;;;;;;;;;5075086;28;20499;-75
2021/07/16 10:35:15;;;;;;;18.00;7.10;;;;;;;;;;5075409;28;20973;-75
2021/07/16 10:37:42;;;;;;;20.60;6.60;;;;;;;;;;5075229;28;20450;-74
2021/07/16 10:40:10;;;;;;;21.23;7.77;;;;;;;;;;5074922;28;20435;-75
2021/07/16 10:42:41;;;;;;;15.73;7.07;;;;;;;;;;5074036;28;20537;-75
2021/07/16 10:45:09;;;;;;;26.33;7.70;;;;;;;;;;5076010;28;20449;-75
2021/07/16 10:47:38;;;;;;;22.97;7.70;;;;;;;;;;5075357;28;20443;-75
2021/07/16 10:50:08;;;;;;;30.53;9.17;;;;;;;;;;5074795;28;20523;-75
2021/07/16 10:52:42;;;;;;;16.43;7.10;;;;;;;;;;5074650;28;20468;-75
2021/07/16 10:55:10;;;;;;;18.70;8.00;;;;;;;;;;5075725;28;20469;-74
2021/07/16 10:57:41;;;;;;;18.63;7.30;;;;;;;;;;5074917;28;20938;-74
2021/07/16 11:00:09;;;;;;;23.77;8.73;;;;;;;;;;5075186;28;20927;-75
2021/07/16 11:02:48;;;;;;;17.40;6.90;;;;;;;;;;5074951;28;20443;-74
2021/07/16 11:05:45;;;;;;;19.73;8.00;;;;;;;;;;5078368;28;20473;-74
2021/07/16 11:08:27;;;;;;;15.30;6.60;;;;;;;;;;5036174;28;20453;-75
2021/07/16 11:10:55;;;;;;;20.93;6.83;;;;;;;;;;5070535;28;20449;-75
2021/07/16 11:13:32;;;;;;;22.33;7.90;;;;;;;;;;5075606;28;20451;-74
2021/07/16 11:15:59;;;;;;;18.40;7.33;;;;;;;;;;5074491;28;20494;-75
2021/07/16 11:18:27;;;;;;;25.83;8.23;;;;;;;;;;5074336;28;20464;-74
2021/07/16 11:20:55;;;;;;;20.47;6.80;;;;;;;;;;5074122;28;20446;-73
2021/07/16 11:23:22;;;;;;;15.93;6.80;;;;;;;;;;5073905;28;20540;-75
2021/07/16 11:25:52;;;;;;;19.70;7.83;;;;;;;;;;5074231;28;20532;-74
2021/07/16 11:28:19;;;;;;;23.00;9.27;;;;;;;;;;5074116;28;20776;-74
2021/07/16 11:30:46;;;;;;;23.07;7.50;;;;;;;;;;5073867;28;20537;-75
2021/07/16 11:33:13;;;;;;;26.27;8.37;;;;;;;;;;5074025;28;20570;-76
2021/07/16 11:35:51;;;;;;;17.67;7.07;;;;;;;;;;5073700;28;21013;-75
2021/07/16 11:38:19;;;;;;;22.23;8.57;;;;;;;;;;5074511;28;20770;-75
2021/07/16 11:40:46;;;;;;;20.33;7.77;;;;;;;;;;5073637;28;20541;-75
2021/07/16 11:43:16;;;;;;;19.53;8.57;;;;;;;;;;5074563;28;20534;-75
2021/07/16 11:45:44;;;;;;;18.73;7.73;;;;;;;;;;5074390;28;20438;-75
2021/07/16 11:48:16;;;;;;;17.87;6.93;;;;;;;;;;5074165;28;20442;-75
2021/07/16 11:50:46;;;;;;;29.57;7.43;;;;;;;;;;5073999;28;20982;-75
2021/07/16 11:53:13;;;;;;;19.33;7.57;;;;;;;;;;5073053;28;21019;-74
2021/07/16 11:55:44;;;;;;;21.13;7.17;;;;;;;;;;5073795;28;20541;-74
2021/07/16 11:58:12;;;;;;;13.40;6.63;;;;;;;;;;5073482;28;20435;-75
2021/07/16 12:00:43;;;;;;;32.63;8.67;;;;;;;;;;5073762;28;20446;-75
2021/07/16 12:03:12;;;;;;;15.57;6.77;;;;;;;;;;5073437;28;20941;-75
2021/07/16 12:05:46;;;;;;;21.40;7.87;;;;;;;;;;5073574;28;20446;-75
2021/07/16 12:08:17;;;;;;;27.67;9.40;;;;;;;;;;5073908;28;20425;-75
2021/07/16 12:10:44;;;;;;;21.40;8.77;;;;;;;;;;5073755;28;20436;-75
2021/07/16 12:13:12;;;;;;;24.43;8.90;;;;;;;;;;5073171;28;21070;-75
2021/07/16 12:15:40;;;;;;;35.67;9.30;;;;;;;;;;5073207;28;20483;-75
2021/07/16 12:18:08;;;;;;;18.00;8.17;;;;;;;;;;5073579;28;20442;-74
2021/07/16 12:20:36;;;;;;;16.37;7.80;;;;;;;;;;5073459;28;20451;-75
2021/07/16 12:23:07;;;;;;;23.10;8.60;;;;;;;;;;5073395;28;20523;-75
2021/07/16 12:25:35;;;;;;;24.43;9.90;;;;;;;;;;5073381;28;20432;-75
2021/07/16 12:28:07;;;;;;;21.63;10.83;;;;;;;;;;5073234;28;20450;-75
2021/07/16 12:30:34;;;;;;;23.17;9.60;;;;;;;;;;5073278;28;20488;-74
2021/07/16 12:33:04;;;;;;;17.03;9.03;;;;;;;;;;5073162;28;20470;-75
2021/07/16 12:35:31;;;;;;;20.10;9.20;;;;;;;;;;5073547;28;20986;-74
2021/07/16 12:38:02;;;;;;;19.50;11.20;;;;;;;;;;5073048;28;20983;-74
2021/07/16 12:40:30;;;;;;;18.53;10.33;;;;;;;;;;5073636;28;20529;-76
2021/07/16 12:43:01;;;;;;;20.00;9.87;;;;;;;;;;5073519;28;20849;-75
2021/07/16 12:45:36;;;;;;;16.40;9.63;;;;;;;;;;5072959;28;20533;-75
2021/07/16 12:48:11;;;;;;;22.17;9.97;;;;;;;;;;5073165;28;20523;-75
2021/07/16 12:50:38;;;;;;;23.30;11.20;;;;;;;;;;5074095;28;20428;-75
2021/07/16 12:53:06;;;;;;;23.67;11.03;;;;;;;;;;5073472;28;20482;-77
2021/07/16 12:55:34;;;;;;;28.93;11.60;;;;;;;;;;5073555;28;20547;-73
2021/07/16 12:58:02;;;;;;;21.40;10.90;;;;;;;;;;5073028;28;20434;-72
2021/07/16 13:00:29;;;;;;;20.50;10.47;;;;;;;;;;5072666;28;20449;-73
2021/07/16 13:03:11;;;;;;;13.47;9.50;;;;;;;;;;5073028;28;20473;-73
2021/07/16 13:05:40;;;;;;;34.87;11.17;;;;;;;;;;5075046;28;20458;-73
2021/07/16 13:08:14;;;;;;;20.10;10.17;;;;;;;;;;5078067;28;20754;-74
2021/07/16 13:10:46;;;;;;;24.17;11.57;;;;;;;;;;5076877;28;20452;-73
2021/07/16 13:13:17;;;;;;;23.27;10.10;;;;;;;;;;5076574;28;20473;-72
2021/07/16 13:15:44;;;;;;;19.47;10.43;;;;;;;;;;5082337;28;20541;-72
2021/07/16 13:18:16;;;;;;;25.40;9.27;;;;;;;;;;5082375;28;20442;-72
2021/07/16 13:20:45;;;;;;;19.50;10.70;;;;;;;;;;5076752;28;20860;-72
2021/07/16 13:23:12;;;;;;;20.40;11.40;;;;;;;;;;5076613;28;20442;-72
2021/07/16 13:25:39;;;;;;;24.50;11.40;;;;;;;;;;5076546;28;20948;-73
2021/07/16 13:28:07;;;;;;;29.13;11.80;;;;;;;;;;5076988;28;20446;-72
2021/07/16 13:30:34;;;;;;;18.23;9.37;;;;;;;;;;5076622;28;20450;-73
2021/07/16 13:33:01;;;;;;;17.10;11.60;;;;;;;;;;5076730;28;20483;-73
2021/07/16 13:35:29;;;;;;;22.07;9.97;;;;;;;;;;5076362;28;20454;-72
2021/07/16 13:37:57;;;;;;;23.63;10.80;;;;;;;;;;5076756;28;20537;-72
2021/07/16 13:40:25;;;;;;;17.50;9.43;;;;;;;;;;5076583;28;20447;-73
2021/07/16 13:42:52;;;;;;;24.20;10.70;;;;;;;;;;5076123;28;20462;-74
2021/07/16 13:45:19;;;;;;;17.63;10.40;;;;;;;;;;5075947;28;20494;-73
2021/07/16 13:47:46;;;;;;;16.93;9.10;;;;;;;;;;5076529;28;20567;-73
2021/07/16 13:50:13;;;;;;;20.77;9.17;;;;;;;;;;5076501;28;20447;-73
2021/07/16 13:52:41;;;;;;;19.70;9.33;;;;;;;;;;5076395;28;20486;-73
2021/07/16 13:55:10;;;;;;;22.20;8.93;;;;;;;;;;5076301;28;20558;-73
2021/07/16 13:57:37;;;;;;;17.90;9.90;;;;;;;;;;5076341;28;20449;-73
2021/07/16 14:00:07;;;;;;;16.00;9.50;;;;;;;;;;5075949;28;20925;-73
2021/07/16 14:02:34;;;;;;;20.07;10.70;;;;;;;;;;5076274;28;20446;-72
2021/07/16 14:05:01;;;;;;;15.47;9.57;;;;;;;;;;5075853;28;20450;-74
2021/07/16 14:07:29;;;;;;;14.80;7.87;;;;;;;;;;5075876;28;20536;-73
2021/07/16 14:09:56;;;;;;;23.73;8.67;;;;;;;;;;5075727;28;20963;-73
2021/07/16 14:12:24;;;;;;;29.10;9.33;;;;;;;;;;5075747;28;20482;-73
2021/07/16 14:14:52;;;;;;;12.63;7.70;;;;;;;;;;5075975;28;20447;-74
2021/07/16 14:17:19;;;;;;;19.03;7.43;;;;;;;;;;5076193;28;20440;-74
2021/07/16 14:19:47;;;;;;;14.57;8.07;;;;;;;;;;5075785;28;20447;-73
2021/07/16 14:22:14;;;;;;;15.43;7.40;;;;;;;;;;5075798;28;20448;-73
2021/07/16 14:24:43;;;;;;;14.43;9.50;;;;;;;;;;5075667;28;20478;-72
2021/07/16 14:27:10;;;;;;;21.40;8.90;;;;;;;;;;5076447;28;20444;-73
2021/07/16 14:29:38;;;;;;;19.50;9.20;;;;;;;;;;5075955;28;20437;-73
2021/07/16 14:32:06;;;;;;;20.20;7.80;;;;;;;;;;5076201;28;20444;-72
2021/07/16 14:34:33;;;;;;;24.67;8.10;;;;;;;;;;5075589;28;20455;-72